sensor_id;sensor_type;location;lat;lon;timestamp;temperature;humidity
17154;DHT22;8692;52.164;7.558;2022-12-07T00:01:46;5.40;99.90
17154;DHT22;8692;52.164;7.558;2022-12-07T00:04:18;5.40;99.90
17154;DHT22;8692;52.164;7.558;2022-12-07T00:06:51;5.40;99.90
17154;DHT22;8692;52.164;7.558;2022-12-07T00:09:19;5.30;99.90
17154;DHT22;8692;52.164;7.558;2022-12-07T00:11:51;5.30;99.90
17154;DHT22;8692;52.164;7.558;2022-12-07T00:14:20;5.30;99.90
17154;DHT22;8692;52.164;7.558;2022-12-07T00:16:50;5.30;99.90
17154;DHT22;8692;52.164;7.558;2022-12-07T00:19:18;5.30;99.90
17154;DHT22;8692;52.164;7.558;2022-12-07T00:21:47;5.30;99.90
17154;DHT22;8692;52.164;7.558;2022-12-07T00:24:15;5.30;99.90
17154;DHT22;8692;52.164;7.558;2022-12-07T00:26:43;5.30;99.90
17154;DHT22;8692;52.164;7.558;2022-12-07T00:29:16;5.30;99.90
17154;DHT22;8692;52.164;7.558;2022-12-07T00:31:46;5.30;99.90
17154;DHT22;8692;52.164;7.558;2022-12-07T00:34:18;5.30;99.90
17154;DHT22;8692;52.164;7.558;2022-12-07T00:36:48;5.20;99.90
17154;DHT22;8692;52.164;7.558;2022-12-07T00:39:16;5.20;99.90
17154;DHT22;8692;52.164;7.558;2022-12-07T00:41:44;5.20;99.90
17154;DHT22;8692;52.164;7.558;2022-12-07T00:44:12;5.20;99.90
17154;DHT22;8692;52.164;7.558;2022-12-07T00:46:40;5.20;99.90
17154;DHT22;8692;52.164;7.558;2022-12-07T00:49:12;5.10;99.90
17154;DHT22;8692;52.164;7.558;2022-12-07T00:51:40;5.10;99.90
17154;DHT22;8692;52.164;7.558;2022-12-07T00:54:11;5.10;99.90
17154;DHT22;8692;52.164;7.558;2022-12-07T00:56:39;5.10;99.90
17154;DHT22;8692;52.164;7.558;2022-12-07T00:59:10;5.10;99.90
17154;DHT22;8692;52.164;7.558;2022-12-07T01:01:39;5.10;99.90
17154;DHT22;8692;52.164;7.558;2022-12-07T01:04:08;5.00;99.90
17154;DHT22;8692;52.164;7.558;2022-12-07T01:06:40;5.00;99.90
17154;DHT22;8692;52.164;7.558;2022-12-07T01:09:08;5.00;99.90
17154;DHT22;8692;52.164;7.558;2022-12-07T01:11:38;5.00;99.90
17154;DHT22;8692;52.164;7.558;2022-12-07T01:14:06;5.00;99.90
17154;DHT22;8692;52.164;7.558;2022-12-07T01:16:35;4.90;99.90
17154;DHT22;8692;52.164;7.558;2022-12-07T01:19:03;5.00;99.90
17154;DHT22;8692;52.164;7.558;2022-12-07T01:21:33;4.90;99.90
17154;DHT22;8692;52.164;7.558;2022-12-07T01:24:08;4.90;99.90
17154;DHT22;8692;52.164;7.558;2022-12-07T01:26:37;4.90;99.90
17154;DHT22;8692;52.164;7.558;2022-12-07T01:29:05;4.80;99.90
17154;DHT22;8692;52.164;7.558;2022-12-07T01:31:33;4.80;99.90
17154;DHT22;8692;52.164;7.558;2022-12-07T01:34:01;4.80;99.90
17154;DHT22;8692;52.164;7.558;2022-12-07T01:36:31;4.70;99.90
17154;DHT22;8692;52.164;7.558;2022-12-07T01:39:02;4.70;99.90
17154;DHT22;8692;52.164;7.558;2022-12-07T01:41:36;4.70;99.90
17154;DHT22;8692;52.164;7.558;2022-12-07T01:44:25;4.60;99.90
17154;DHT22;8692;52.164;7.558;2022-12-07T01:46:54;4.60;99.90
17154;DHT22;8692;52.164;7.558;2022-12-07T01:49:29;4.50;99.90
17154;DHT22;8692;52.164;7.558;2022-12-07T01:52:04;4.50;99.90
17154;DHT22;8692;52.164;7.558;2022-12-07T01:54:35;4.50;99.90
17154;DHT22;8692;52.164;7.558;2022-12-07T01:57:06;4.40;99.90
17154;DHT22;8692;52.164;7.558;2022-12-07T01:59:38;4.40;99.90
17154;DHT22;8692;52.164;7.558;2022-12-07T02:02:11;4.40;99.90
17154;DHT22;8692;52.164;7.558;2022-12-07T02:04:43;4.40;99.90
17154;DHT22;8692;52.164;7.558;2022-12-07T02:07:12;4.30;99.90
17154;DHT22;8692;52.164;7.558;2022-12-07T02:09:40;4.30;99.90
17154;DHT22;8692;52.164;7.558;2022-12-07T02:12:12;4.30;99.90
17154;DHT22;8692;52.164;7.558;2022-12-07T02:14:40;4.30;99.90
17154;DHT22;8692;52.164;7.558;2022-12-07T02:17:14;4.20;99.90
17154;DHT22;8692;52.164;7.558;2022-12-07T02:20:04;4.20;99.90
17154;DHT22;8692;52.164;7.558;2022-12-07T02:22:57;4.20;99.90
17154;DHT22;8692;52.164;7.558;2022-12-07T02:25:41;4.10;99.90
17154;DHT22;8692;52.164;7.558;2022-12-07T02:28:28;4.10;99.90
17154;DHT22;8692;52.164;7.558;2022-12-07T02:31:06;4.10;99.90
17154;DHT22;8692;52.164;7.558;2022-12-07T02:33:38;4.10;99.90
17154;DHT22;8692;52.164;7.558;2022-12-07T02:36:12;4.00;99.90
17154;DHT22;8692;52.164;7.558;2022-12-07T02:38:48;4.00;99.90
17154;DHT22;8692;52.164;7.558;2022-12-07T02:41:22;4.00;99.90
17154;DHT22;8692;52.164;7.558;2022-12-07T02:43:54;3.90;99.90
17154;DHT22;8692;52.164;7.558;2022-12-07T02:46:28;3.90;99.90
17154;DHT22;8692;52.164;7.558;2022-12-07T02:48:57;3.90;99.90
17154;DHT22;8692;52.164;7.558;2022-12-07T02:51:30;3.90;99.90
17154;DHT22;8692;52.164;7.558;2022-12-07T02:54:00;3.80;99.90
17154;DHT22;8692;52.164;7.558;2022-12-07T02:56:39;3.80;99.90
17154;DHT22;8692;52.164;7.558;2022-12-07T02:59:17;3.80;99.90
17154;DHT22;8692;52.164;7.558;2022-12-07T03:01:56;3.70;99.90
17154;DHT22;8692;52.164;7.558;2022-12-07T03:04:38;3.70;99.90
17154;DHT22;8692;52.164;7.558;2022-12-07T03:07:18;3.70;99.90
17154;DHT22;8692;52.164;7.558;2022-12-07T03:09:57;3.60;99.90
17154;DHT22;8692;52.164;7.558;2022-12-07T03:12:32;3.60;99.90
17154;DHT22;8692;52.164;7.558;2022-12-07T03:15:09;3.60;99.90
17154;DHT22;8692;52.164;7.558;2022-12-07T03:17:41;3.60;99.90
17154;DHT22;8692;52.164;7.558;2022-12-07T03:20:13;3.60;99.90
17154;DHT22;8692;52.164;7.558;2022-12-07T03:22:47;3.60;99.90
17154;DHT22;8692;52.164;7.558;2022-12-07T03:25:16;3.50;99.90
17154;DHT22;8692;52.164;7.558;2022-12-07T03:27:50;3.50;99.90
17154;DHT22;8692;52.164;7.558;2022-12-07T03:30:20;3.60;99.90
17154;DHT22;8692;52.164;7.558;2022-12-07T03:32:54;3.50;99.90
17154;DHT22;8692;52.164;7.558;2022-12-07T03:35:26;3.50;99.90
17154;DHT22;8692;52.164;7.558;2022-12-07T03:38:02;3.50;99.90
17154;DHT22;8692;52.164;7.558;2022-12-07T03:40:40;3.50;99.90
17154;DHT22;8692;52.164;7.558;2022-12-07T03:43:08;3.50;99.90
17154;DHT22;8692;52.164;7.558;2022-12-07T03:45:39;3.50;99.90
17154;DHT22;8692;52.164;7.558;2022-12-07T03:48:12;3.50;99.90
17154;DHT22;8692;52.164;7.558;2022-12-07T03:50:50;3.50;99.90
17154;DHT22;8692;52.164;7.558;2022-12-07T03:53:24;3.40;99.90
17154;DHT22;8692;52.164;7.558;2022-12-07T03:55:54;3.40;99.90
17154;DHT22;8692;52.164;7.558;2022-12-07T03:58:26;3.40;99.90
17154;DHT22;8692;52.164;7.558;2022-12-07T04:00:56;3.40;99.90
17154;DHT22;8692;52.164;7.558;2022-12-07T04:03:26;3.40;99.90
17154;DHT22;8692;52.164;7.558;2022-12-07T04:05:54;3.40;99.90
17154;DHT22;8692;52.164;7.558;2022-12-07T04:08:22;3.40;99.90
17154;DHT22;8692;52.164;7.558;2022-12-07T04:10:51;3.40;99.90
17154;DHT22;8692;52.164;7.558;2022-12-07T04:13:19;3.40;99.90
17154;DHT22;8692;52.164;7.558;2022-12-07T04:15:47;3.30;99.90
17154;DHT22;8692;52.164;7.558;2022-12-07T04:18:15;3.40;99.90
17154;DHT22;8692;52.164;7.558;2022-12-07T04:20:47;3.30;99.90
17154;DHT22;8692;52.164;7.558;2022-12-07T04:23:15;3.40;99.90
17154;DHT22;8692;52.164;7.558;2022-12-07T04:25:43;3.40;99.90
17154;DHT22;8692;52.164;7.558;2022-12-07T04:28:11;3.40;99.90
17154;DHT22;8692;52.164;7.558;2022-12-07T04:30:42;3.40;99.90
17154;DHT22;8692;52.164;7.558;2022-12-07T04:33:10;3.40;99.90
17154;DHT22;8692;52.164;7.558;2022-12-07T04:35:38;3.40;99.90
17154;DHT22;8692;52.164;7.558;2022-12-07T04:38:10;3.40;99.90
17154;DHT22;8692;52.164;7.558;2022-12-07T04:40:38;3.40;99.90
17154;DHT22;8692;52.164;7.558;2022-12-07T04:43:06;3.40;99.90
17154;DHT22;8692;52.164;7.558;2022-12-07T04:45:34;3.40;99.90
17154;DHT22;8692;52.164;7.558;2022-12-07T04:48:02;3.40;99.90
17154;DHT22;8692;52.164;7.558;2022-12-07T04:50:31;3.40;99.90
17154;DHT22;8692;52.164;7.558;2022-12-07T04:52:59;3.40;99.90
17154;DHT22;8692;52.164;7.558;2022-12-07T04:55:28;3.50;99.90
17154;DHT22;8692;52.164;7.558;2022-12-07T04:57:56;3.50;99.90
17154;DHT22;8692;52.164;7.558;2022-12-07T05:00:24;3.40;99.90
17154;DHT22;8692;52.164;7.558;2022-12-07T05:02:53;3.40;99.90
17154;DHT22;8692;52.164;7.558;2022-12-07T05:05:21;3.40;99.90
17154;DHT22;8692;52.164;7.558;2022-12-07T05:07:51;3.40;99.90
17154;DHT22;8692;52.164;7.558;2022-12-07T05:10:20;3.40;99.90
17154;DHT22;8692;52.164;7.558;2022-12-07T05:12:52;3.40;99.90
17154;DHT22;8692;52.164;7.558;2022-12-07T05:15:20;3.50;99.90
17154;DHT22;8692;52.164;7.558;2022-12-07T05:17:48;3.50;99.90
17154;DHT22;8692;52.164;7.558;2022-12-07T05:20:21;3.50;99.90
17154;DHT22;8692;52.164;7.558;2022-12-07T05:22:51;3.50;99.90
17154;DHT22;8692;52.164;7.558;2022-12-07T05:25:19;3.50;99.90
17154;DHT22;8692;52.164;7.558;2022-12-07T05:27:47;3.50;99.90
17154;DHT22;8692;52.164;7.558;2022-12-07T05:30:17;3.40;99.90
17154;DHT22;8692;52.164;7.558;2022-12-07T05:32:48;3.50;99.90
17154;DHT22;8692;52.164;7.558;2022-12-07T05:35:18;3.50;99.90
17154;DHT22;8692;52.164;7.558;2022-12-07T05:37:47;3.50;99.90
17154;DHT22;8692;52.164;7.558;2022-12-07T05:40:18;3.50;99.90
17154;DHT22;8692;52.164;7.558;2022-12-07T05:42:48;3.50;99.90
17154;DHT22;8692;52.164;7.558;2022-12-07T05:45:16;3.50;99.90
17154;DHT22;8692;52.164;7.558;2022-12-07T05:47:45;3.40;99.90
17154;DHT22;8692;52.164;7.558;2022-12-07T05:50:13;3.50;99.90
17154;DHT22;8692;52.164;7.558;2022-12-07T05:52:58;3.40;99.90
17154;DHT22;8692;52.164;7.558;2022-12-07T05:55:26;3.40;99.90
17154;DHT22;8692;52.164;7.558;2022-12-07T05:57:55;3.40;99.90
17154;DHT22;8692;52.164;7.558;2022-12-07T06:00:54;3.40;99.90
17154;DHT22;8692;52.164;7.558;2022-12-07T06:03:22;3.50;99.90
17154;DHT22;8692;52.164;7.558;2022-12-07T06:05:52;3.40;99.90
17154;DHT22;8692;52.164;7.558;2022-12-07T06:08:20;3.50;99.90
17154;DHT22;8692;52.164;7.558;2022-12-07T06:10:49;3.50;99.90
17154;DHT22;8692;52.164;7.558;2022-12-07T06:13:38;3.50;99.90
17154;DHT22;8692;52.164;7.558;2022-12-07T06:16:16;3.50;99.90
17154;DHT22;8692;52.164;7.558;2022-12-07T06:18:44;3.50;99.90
17154;DHT22;8692;52.164;7.558;2022-12-07T06:21:12;3.50;99.90
17154;DHT22;8692;52.164;7.558;2022-12-07T06:23:41;3.50;99.90
17154;DHT22;8692;52.164;7.558;2022-12-07T06:26:09;3.50;99.90
17154;DHT22;8692;52.164;7.558;2022-12-07T06:28:37;3.50;99.90
17154;DHT22;8692;52.164;7.558;2022-12-07T06:31:08;3.50;99.90
17154;DHT22;8692;52.164;7.558;2022-12-07T06:33:41;3.40;99.90
17154;DHT22;8692;52.164;7.558;2022-12-07T06:36:12;3.50;99.90
17154;DHT22;8692;52.164;7.558;2022-12-07T06:38:42;3.40;99.90
17154;DHT22;8692;52.164;7.558;2022-12-07T06:41:11;3.40;99.90
17154;DHT22;8692;52.164;7.558;2022-12-07T06:43:39;3.40;99.90
17154;DHT22;8692;52.164;7.558;2022-12-07T06:46:08;3.30;99.90
17154;DHT22;8692;52.164;7.558;2022-12-07T06:48:36;3.30;99.90
17154;DHT22;8692;52.164;7.558;2022-12-07T06:51:06;3.30;99.90
17154;DHT22;8692;52.164;7.558;2022-12-07T06:53:37;3.30;99.90
17154;DHT22;8692;52.164;7.558;2022-12-07T06:56:06;3.30;99.90
17154;DHT22;8692;52.164;7.558;2022-12-07T06:58:35;3.30;99.90
17154;DHT22;8692;52.164;7.558;2022-12-07T07:01:09;3.30;99.90
17154;DHT22;8692;52.164;7.558;2022-12-07T07:03:37;3.20;99.90
17154;DHT22;8692;52.164;7.558;2022-12-07T07:06:07;3.20;99.90
17154;DHT22;8692;52.164;7.558;2022-12-07T07:08:36;3.20;99.90
17154;DHT22;8692;52.164;7.558;2022-12-07T07:11:06;3.20;99.90
17154;DHT22;8692;52.164;7.558;2022-12-07T07:13:34;3.20;99.90
17154;DHT22;8692;52.164;7.558;2022-12-07T07:16:03;3.20;99.90
17154;DHT22;8692;52.164;7.558;2022-12-07T07:18:33;3.20;99.90
17154;DHT22;8692;52.164;7.558;2022-12-07T07:21:01;3.20;99.90
17154;DHT22;8692;52.164;7.558;2022-12-07T07:23:33;3.20;99.90
17154;DHT22;8692;52.164;7.558;2022-12-07T07:26:04;3.20;99.90
17154;DHT22;8692;52.164;7.558;2022-12-07T07:28:34;3.20;99.90
17154;DHT22;8692;52.164;7.558;2022-12-07T07:31:02;3.20;99.90
17154;DHT22;8692;52.164;7.558;2022-12-07T07:33:30;3.20;99.90
17154;DHT22;8692;52.164;7.558;2022-12-07T07:36:01;3.20;99.90
17154;DHT22;8692;52.164;7.558;2022-12-07T07:38:29;3.20;99.90
17154;DHT22;8692;52.164;7.558;2022-12-07T07:40:58;3.30;99.90
17154;DHT22;8692;52.164;7.558;2022-12-07T07:43:29;3.30;99.90
17154;DHT22;8692;52.164;7.558;2022-12-07T07:45:57;3.30;99.90
17154;DHT22;8692;52.164;7.558;2022-12-07T07:48:28;3.30;99.90
17154;DHT22;8692;52.164;7.558;2022-12-07T07:50:56;3.30;99.90
17154;DHT22;8692;52.164;7.558;2022-12-07T07:53:24;3.30;99.90
17154;DHT22;8692;52.164;7.558;2022-12-07T07:55:52;3.30;99.90
17154;DHT22;8692;52.164;7.558;2022-12-07T07:58:22;3.30;99.90
17154;DHT22;8692;52.164;7.558;2022-12-07T08:00:50;3.30;99.90
17154;DHT22;8692;52.164;7.558;2022-12-07T08:03:18;3.30;99.90
17154;DHT22;8692;52.164;7.558;2022-12-07T08:05:47;3.30;99.90
17154;DHT22;8692;52.164;7.558;2022-12-07T08:08:15;3.30;99.90
17154;DHT22;8692;52.164;7.558;2022-12-07T08:10:43;3.30;99.90
17154;DHT22;8692;52.164;7.558;2022-12-07T08:13:11;3.30;99.90
17154;DHT22;8692;52.164;7.558;2022-12-07T08:15:44;3.20;99.90
17154;DHT22;8692;52.164;7.558;2022-12-07T08:18:13;3.20;99.90
17154;DHT22;8692;52.164;7.558;2022-12-07T08:20:44;3.20;99.90
17154;DHT22;8692;52.164;7.558;2022-12-07T08:23:12;3.20;99.90
17154;DHT22;8692;52.164;7.558;2022-12-07T08:25:40;3.20;99.90
17154;DHT22;8692;52.164;7.558;2022-12-07T08:28:11;3.20;99.90
17154;DHT22;8692;52.164;7.558;2022-12-07T08:30:39;3.30;99.90
17154;DHT22;8692;52.164;7.558;2022-12-07T08:33:09;3.20;99.90
17154;DHT22;8692;52.164;7.558;2022-12-07T08:35:37;3.30;99.90
17154;DHT22;8692;52.164;7.558;2022-12-07T08:38:07;3.30;99.90
17154;DHT22;8692;52.164;7.558;2022-12-07T08:40:35;3.30;99.90
17154;DHT22;8692;52.164;7.558;2022-12-07T08:43:06;3.40;99.90
17154;DHT22;8692;52.164;7.558;2022-12-07T08:45:34;3.40;99.90
17154;DHT22;8692;52.164;7.558;2022-12-07T08:48:10;3.40;99.90
17154;DHT22;8692;52.164;7.558;2022-12-07T08:50:39;3.40;99.90
17154;DHT22;8692;52.164;7.558;2022-12-07T08:53:17;3.40;99.90
17154;DHT22;8692;52.164;7.558;2022-12-07T08:55:46;3.50;99.90
17154;DHT22;8692;52.164;7.558;2022-12-07T08:58:14;3.50;99.90
17154;DHT22;8692;52.164;7.558;2022-12-07T09:00:43;3.50;99.90
17154;DHT22;8692;52.164;7.558;2022-12-07T09:03:12;3.60;99.90
17154;DHT22;8692;52.164;7.558;2022-12-07T09:05:40;3.60;99.90
17154;DHT22;8692;52.164;7.558;2022-12-07T09:08:09;3.60;99.90
17154;DHT22;8692;52.164;7.558;2022-12-07T09:10:39;3.60;99.90
17154;DHT22;8692;52.164;7.558;2022-12-07T09:13:07;3.70;99.90
17154;DHT22;8692;52.164;7.558;2022-12-07T09:15:36;3.70;99.90
17154;DHT22;8692;52.164;7.558;2022-12-07T09:18:06;3.80;99.90
17154;DHT22;8692;52.164;7.558;2022-12-07T09:20:36;3.70;99.90
17154;DHT22;8692;52.164;7.558;2022-12-07T09:23:06;3.80;99.90
17154;DHT22;8692;52.164;7.558;2022-12-07T09:25:35;3.80;99.90
17154;DHT22;8692;52.164;7.558;2022-12-07T09:28:03;3.80;99.90
17154;DHT22;8692;52.164;7.558;2022-12-07T09:30:31;3.80;99.90
17154;DHT22;8692;52.164;7.558;2022-12-07T09:33:20;3.80;99.90
17154;DHT22;8692;52.164;7.558;2022-12-07T09:35:50;3.90;99.90
17154;DHT22;8692;52.164;7.558;2022-12-07T09:38:19;3.90;99.90
17154;DHT22;8692;52.164;7.558;2022-12-07T09:40:48;4.00;99.90
17154;DHT22;8692;52.164;7.558;2022-12-07T09:43:19;3.90;99.90
17154;DHT22;8692;52.164;7.558;2022-12-07T09:45:50;4.00;99.90
17154;DHT22;8692;52.164;7.558;2022-12-07T09:48:21;4.00;99.90
17154;DHT22;8692;52.164;7.558;2022-12-07T09:50:54;4.10;99.90
17154;DHT22;8692;52.164;7.558;2022-12-07T09:53:27;4.10;99.90
17154;DHT22;8692;52.164;7.558;2022-12-07T09:55:56;4.20;99.90
17154;DHT22;8692;52.164;7.558;2022-12-07T09:58:25;4.20;99.90
17154;DHT22;8692;52.164;7.558;2022-12-07T10:00:56;4.20;99.90
17154;DHT22;8692;52.164;7.558;2022-12-07T10:03:26;4.30;99.90
17154;DHT22;8692;52.164;7.558;2022-12-07T10:05:56;4.30;99.90
17154;DHT22;8692;52.164;7.558;2022-12-07T10:08:25;4.40;99.90
17154;DHT22;8692;52.164;7.558;2022-12-07T10:10:55;4.40;99.90
17154;DHT22;8692;52.164;7.558;2022-12-07T10:13:35;4.50;99.90
17154;DHT22;8692;52.164;7.558;2022-12-07T10:16:06;4.50;99.90
17154;DHT22;8692;52.164;7.558;2022-12-07T10:18:46;4.50;99.90
17154;DHT22;8692;52.164;7.558;2022-12-07T10:21:18;4.60;99.90
17154;DHT22;8692;52.164;7.558;2022-12-07T10:24:00;4.60;99.90
17154;DHT22;8692;52.164;7.558;2022-12-07T10:26:33;4.60;99.90
17154;DHT22;8692;52.164;7.558;2022-12-07T10:29:15;4.60;99.90
17154;DHT22;8692;52.164;7.558;2022-12-07T10:31:45;4.60;99.90
17154;DHT22;8692;52.164;7.558;2022-12-07T10:34:21;4.60;99.90
17154;DHT22;8692;52.164;7.558;2022-12-07T10:36:53;4.60;99.90
17154;DHT22;8692;52.164;7.558;2022-12-07T10:39:23;4.60;99.90
17154;DHT22;8692;52.164;7.558;2022-12-07T10:41:55;4.60;99.90
17154;DHT22;8692;52.164;7.558;2022-12-07T10:44:26;4.60;99.90
17154;DHT22;8692;52.164;7.558;2022-12-07T10:47:04;4.60;99.90
17154;DHT22;8692;52.164;7.558;2022-12-07T10:50:23;4.60;99.90
17154;DHT22;8692;52.164;7.558;2022-12-07T10:53:16;4.60;99.90
17154;DHT22;8692;52.164;7.558;2022-12-07T10:55:58;4.70;99.90
17154;DHT22;8692;52.164;7.558;2022-12-07T10:58:44;4.70;99.90
17154;DHT22;8692;52.164;7.558;2022-12-07T11:01:24;4.70;99.90
17154;DHT22;8692;52.164;7.558;2022-12-07T11:04:15;4.70;99.90
17154;DHT22;8692;52.164;7.558;2022-12-07T11:06:51;4.70;99.90
17154;DHT22;8692;52.164;7.558;2022-12-07T11:09:42;4.70;99.90
17154;DHT22;8692;52.164;7.558;2022-12-07T11:12:47;4.80;99.90
17154;DHT22;8692;52.164;7.558;2022-12-07T11:15:20;4.80;99.90
17154;DHT22;8692;52.164;7.558;2022-12-07T11:17:58;4.80;99.90
17154;DHT22;8692;52.164;7.558;2022-12-07T11:20:41;4.90;99.90
17154;DHT22;8692;52.164;7.558;2022-12-07T11:23:21;4.90;99.90
17154;DHT22;8692;52.164;7.558;2022-12-07T11:26:01;5.00;99.90
17154;DHT22;8692;52.164;7.558;2022-12-07T11:28:46;5.10;99.90
17154;DHT22;8692;52.164;7.558;2022-12-07T11:31:24;5.20;99.90
17154;DHT22;8692;52.164;7.558;2022-12-07T11:34:01;5.20;99.90
17154;DHT22;8692;52.164;7.558;2022-12-07T11:36:38;5.20;99.90
17154;DHT22;8692;52.164;7.558;2022-12-07T11:39:16;5.30;99.90
17154;DHT22;8692;52.164;7.558;2022-12-07T11:41:51;5.30;99.90
17154;DHT22;8692;52.164;7.558;2022-12-07T11:44:27;5.30;99.90
17154;DHT22;8692;52.164;7.558;2022-12-07T11:47:05;5.30;99.90
17154;DHT22;8692;52.164;7.558;2022-12-07T11:49:41;5.30;99.90
17154;DHT22;8692;52.164;7.558;2022-12-07T11:52:22;5.40;99.90
17154;DHT22;8692;52.164;7.558;2022-12-07T11:54:53;5.40;99.90
17154;DHT22;8692;52.164;7.558;2022-12-07T11:57:27;5.50;99.90
17154;DHT22;8692;52.164;7.558;2022-12-07T11:59:59;5.60;99.90
17154;DHT22;8692;52.164;7.558;2022-12-07T12:02:34;5.60;99.90
17154;DHT22;8692;52.164;7.558;2022-12-07T12:05:12;5.70;99.90
17154;DHT22;8692;52.164;7.558;2022-12-07T12:07:42;5.80;99.90
17154;DHT22;8692;52.164;7.558;2022-12-07T12:10:40;5.80;99.90
17154;DHT22;8692;52.164;7.558;2022-12-07T12:13:34;5.80;99.90
17154;DHT22;8692;52.164;7.558;2022-12-07T12:16:46;5.90;99.90
17154;DHT22;8692;52.164;7.558;2022-12-07T12:19:28;5.90;99.90
17154;DHT22;8692;52.164;7.558;2022-12-07T12:22:04;6.00;99.90
17154;DHT22;8692;52.164;7.558;2022-12-07T12:24:34;6.00;99.90
17154;DHT22;8692;52.164;7.558;2022-12-07T12:27:07;6.00;99.90
17154;DHT22;8692;52.164;7.558;2022-12-07T12:29:39;6.00;99.90
17154;DHT22;8692;52.164;7.558;2022-12-07T12:32:14;6.00;99.90
17154;DHT22;8692;52.164;7.558;2022-12-07T12:34:59;6.00;99.90
17154;DHT22;8692;52.164;7.558;2022-12-07T12:37:42;6.00;99.90
17154;DHT22;8692;52.164;7.558;2022-12-07T12:40:39;6.00;99.90
17154;DHT22;8692;52.164;7.558;2022-12-07T12:43:50;6.00;99.90
17154;DHT22;8692;52.164;7.558;2022-12-07T12:46:48;6.10;99.90
17154;DHT22;8692;52.164;7.558;2022-12-07T12:50:11;6.10;99.90
17154;DHT22;8692;52.164;7.558;2022-12-07T12:58:44;6.20;99.90
17154;DHT22;8692;52.164;7.558;2022-12-07T13:01:42;6.20;99.90
17154;DHT22;8692;52.164;7.558;2022-12-07T13:04:47;6.20;99.90
17154;DHT22;8692;52.164;7.558;2022-12-07T13:07:50;6.10;99.90
17154;DHT22;8692;52.164;7.558;2022-12-07T13:10:40;6.10;99.90
17154;DHT22;8692;52.164;7.558;2022-12-07T13:13:34;6.00;99.90
17154;DHT22;8692;52.164;7.558;2022-12-07T13:22:51;5.90;99.90
17154;DHT22;8692;52.164;7.558;2022-12-07T13:25:31;5.90;99.90
17154;DHT22;8692;52.164;7.558;2022-12-07T13:28:11;5.90;99.90
17154;DHT22;8692;52.164;7.558;2022-12-07T13:30:48;5.90;99.90
17154;DHT22;8692;52.164;7.558;2022-12-07T13:33:21;5.90;99.90
17154;DHT22;8692;52.164;7.558;2022-12-07T13:35:54;5.80;99.90
17154;DHT22;8692;52.164;7.558;2022-12-07T13:38:28;5.80;99.90
17154;DHT22;8692;52.164;7.558;2022-12-07T13:41:12;5.80;99.90
17154;DHT22;8692;52.164;7.558;2022-12-07T13:43:45;5.80;99.90
17154;DHT22;8692;52.164;7.558;2022-12-07T13:46:20;5.70;99.90
17154;DHT22;8692;52.164;7.558;2022-12-07T13:48:54;5.70;99.90
17154;DHT22;8692;52.164;7.558;2022-12-07T13:51:25;5.70;99.90
17154;DHT22;8692;52.164;7.558;2022-12-07T13:54:01;5.70;99.90
17154;DHT22;8692;52.164;7.558;2022-12-07T13:56:33;5.60;99.90
17154;DHT22;8692;52.164;7.558;2022-12-07T13:59:02;5.60;99.90
17154;DHT22;8692;52.164;7.558;2022-12-07T14:01:31;5.60;99.90
17154;DHT22;8692;52.164;7.558;2022-12-07T14:04:29;5.60;99.90
17154;DHT22;8692;52.164;7.558;2022-12-07T14:06:58;5.60;99.90
17154;DHT22;8692;52.164;7.558;2022-12-07T14:09:29;5.50;99.90
17154;DHT22;8692;52.164;7.558;2022-12-07T14:11:58;5.50;99.90
17154;DHT22;8692;52.164;7.558;2022-12-07T14:14:29;5.50;99.90
17154;DHT22;8692;52.164;7.558;2022-12-07T14:17:12;5.50;99.90
17154;DHT22;8692;52.164;7.558;2022-12-07T14:19:47;5.50;99.90
17154;DHT22;8692;52.164;7.558;2022-12-07T14:22:28;5.50;99.90
17154;DHT22;8692;52.164;7.558;2022-12-07T14:25:14;5.50;99.90
17154;DHT22;8692;52.164;7.558;2022-12-07T14:27:54;5.40;99.90
17154;DHT22;8692;52.164;7.558;2022-12-07T14:30:28;5.40;99.90
17154;DHT22;8692;52.164;7.558;2022-12-07T14:33:00;5.40;99.90
17154;DHT22;8692;52.164;7.558;2022-12-07T14:35:29;5.40;99.90
17154;DHT22;8692;52.164;7.558;2022-12-07T14:38:01;5.40;99.90
17154;DHT22;8692;52.164;7.558;2022-12-07T14:40:30;5.40;99.90
17154;DHT22;8692;52.164;7.558;2022-12-07T14:43:04;5.40;99.90
17154;DHT22;8692;52.164;7.558;2022-12-07T14:45:33;5.40;99.90
17154;DHT22;8692;52.164;7.558;2022-12-07T14:48:04;5.40;99.90
17154;DHT22;8692;52.164;7.558;2022-12-07T14:50:55;5.40;99.90
17154;DHT22;8692;52.164;7.558;2022-12-07T14:53:48;5.30;99.90
17154;DHT22;8692;52.164;7.558;2022-12-07T14:56:24;5.30;99.90
17154;DHT22;8692;52.164;7.558;2022-12-07T14:58:57;5.30;99.90
17154;DHT22;8692;52.164;7.558;2022-12-07T15:01:25;5.30;99.90
17154;DHT22;8692;52.164;7.558;2022-12-07T15:03:55;5.20;99.90
17154;DHT22;8692;52.164;7.558;2022-12-07T15:06:23;5.20;99.90
17154;DHT22;8692;52.164;7.558;2022-12-07T15:08:54;5.20;99.90
17154;DHT22;8692;52.164;7.558;2022-12-07T15:11:24;5.20;99.90
17154;DHT22;8692;52.164;7.558;2022-12-07T15:13:52;5.10;99.90
17154;DHT22;8692;52.164;7.558;2022-12-07T15:16:40;5.10;99.90
17154;DHT22;8692;52.164;7.558;2022-12-07T15:19:29;5.00;99.90
17154;DHT22;8692;52.164;7.558;2022-12-07T15:21:57;5.00;99.90
17154;DHT22;8692;52.164;7.558;2022-12-07T15:24:26;5.00;99.90
17154;DHT22;8692;52.164;7.558;2022-12-07T15:26:56;4.90;99.90
17154;DHT22;8692;52.164;7.558;2022-12-07T15:29:27;4.90;99.90
17154;DHT22;8692;52.164;7.558;2022-12-07T15:31:55;4.90;99.90
17154;DHT22;8692;52.164;7.558;2022-12-07T15:34:27;4.90;99.90
17154;DHT22;8692;52.164;7.558;2022-12-07T15:37:06;4.80;99.90
17154;DHT22;8692;52.164;7.558;2022-12-07T15:39:36;4.80;99.90
17154;DHT22;8692;52.164;7.558;2022-12-07T15:42:08;4.80;99.90
17154;DHT22;8692;52.164;7.558;2022-12-07T15:44:36;4.80;99.90
17154;DHT22;8692;52.164;7.558;2022-12-07T15:47:21;4.80;99.90
17154;DHT22;8692;52.164;7.558;2022-12-07T15:49:51;4.80;99.90
17154;DHT22;8692;52.164;7.558;2022-12-07T15:52:22;4.70;99.90
17154;DHT22;8692;52.164;7.558;2022-12-07T15:54:50;4.70;99.90
17154;DHT22;8692;52.164;7.558;2022-12-07T15:57:20;4.70;99.90
17154;DHT22;8692;52.164;7.558;2022-12-07T15:59:53;4.70;99.90
17154;DHT22;8692;52.164;7.558;2022-12-07T16:02:21;4.60;99.90
17154;DHT22;8692;52.164;7.558;2022-12-07T16:04:52;4.60;99.90
17154;DHT22;8692;52.164;7.558;2022-12-07T16:07:23;4.60;99.90
17154;DHT22;8692;52.164;7.558;2022-12-07T16:09:51;4.60;99.90
17154;DHT22;8692;52.164;7.558;2022-12-07T16:12:21;4.60;99.90
17154;DHT22;8692;52.164;7.558;2022-12-07T16:14:49;4.60;99.90
17154;DHT22;8692;52.164;7.558;2022-12-07T16:17:17;4.60;99.90
17154;DHT22;8692;52.164;7.558;2022-12-07T16:19:48;4.60;99.90
17154;DHT22;8692;52.164;7.558;2022-12-07T16:22:16;4.50;99.90
17154;DHT22;8692;52.164;7.558;2022-12-07T16:24:44;4.50;99.90
17154;DHT22;8692;52.164;7.558;2022-12-07T16:27:12;4.50;99.90
17154;DHT22;8692;52.164;7.558;2022-12-07T16:29:42;4.50;99.90
17154;DHT22;8692;52.164;7.558;2022-12-07T16:32:10;4.40;99.90
17154;DHT22;8692;52.164;7.558;2022-12-07T16:34:39;4.50;99.90
17154;DHT22;8692;52.164;7.558;2022-12-07T16:37:07;4.40;99.90
17154;DHT22;8692;52.164;7.558;2022-12-07T16:39:36;4.40;99.90
17154;DHT22;8692;52.164;7.558;2022-12-07T16:42:06;4.40;99.90
17154;DHT22;8692;52.164;7.558;2022-12-07T16:44:34;4.40;99.90
17154;DHT22;8692;52.164;7.558;2022-12-07T16:47:04;4.40;99.90
17154;DHT22;8692;52.164;7.558;2022-12-07T16:49:35;4.40;99.90
17154;DHT22;8692;52.164;7.558;2022-12-07T16:52:03;4.40;99.90
17154;DHT22;8692;52.164;7.558;2022-12-07T16:54:48;4.40;99.90